createdAt,value
2023-05-13T00:00:07.014Z,91.02
2023-05-13T00:10:07.156Z,91.53
2023-05-13T00:20:07.315Z,92.04
2023-05-13T00:30:07.517Z,92.96
2023-05-13T00:40:07.700Z,92.14
2023-05-13T00:50:07.845Z,92.55
2023-05-13T01:00:08.046Z,93.26
2023-05-13T01:10:08.202Z,93.62
2023-05-13T01:20:08.406Z,93.47
2023-05-13T01:30:08.568Z,92.80
2023-05-13T01:40:24.337Z,92.35
2023-05-13T01:50:09.942Z,92.24
2023-05-13T02:00:09.102Z,91.33
2023-05-13T02:10:09.271Z,91.43
2023-05-13T02:20:09.456Z,91.43
2023-05-13T02:30:09.627Z,91.22
2023-05-13T02:40:09.943Z,91.63
2023-05-13T02:50:09.915Z,91.74
2023-05-13T03:00:10.091Z,91.74
2023-05-13T03:10:10.458Z,92.35
2023-05-13T03:20:10.399Z,92.14
2023-05-13T03:30:10.543Z,92.86
2023-05-13T03:40:10.706Z,93.67
2023-05-13T03:50:10.870Z,92.65
2023-05-13T04:00:11.032Z,92.76
2023-05-13T04:10:13.782Z,92.14
2023-05-13T04:20:11.436Z,91.83
2023-05-13T04:30:11.596Z,92.24
2023-05-13T04:40:11.765Z,92.14
2023-05-13T04:50:11.913Z,92.30
2023-05-13T05:00:12.102Z,91.59
2023-05-13T05:10:12.266Z,91.28
2023-05-13T05:20:12.527Z,90.77
2023-05-13T05:30:12.687Z,90.57
2023-05-13T05:40:12.838Z,90.98
2023-05-13T05:50:13.045Z,91.35
2023-05-13T06:00:13.218Z,91.55
2023-05-13T06:10:13.379Z,91.55
2023-05-13T06:20:13.586Z,92.26
2023-05-13T06:30:13.753Z,93.74
2023-05-13T06:40:13.925Z,92.93
2023-05-13T06:50:14.109Z,92.68
2023-05-13T07:00:14.252Z,92.58
2023-05-13T07:10:14.433Z,92.23
2023-05-13T07:20:14.630Z,91.27
2023-05-13T07:30:14.784Z,90.52
2023-05-13T07:40:14.963Z,88.75
2023-05-13T07:50:15.125Z,88.81
2023-05-13T08:00:15.294Z,88.50
2023-05-13T08:10:15.433Z,88.56
2023-05-13T08:20:15.599Z,86.33
2023-05-13T08:30:15.758Z,87.34
2023-05-13T08:40:15.945Z,87.40
2023-05-13T08:50:16.122Z,84.18
2023-05-13T09:00:16.284Z,83.81
2023-05-13T09:10:16.607Z,81.88
2023-05-13T09:20:16.595Z,81.04
2023-05-13T09:30:16.736Z,81.64
2023-05-13T09:40:16.883Z,82.92
2023-05-13T09:50:17.026Z,80.86
2023-05-13T10:00:28.871Z,80.99
2023-05-13T10:10:18.448Z,80.31
2023-05-13T10:20:17.627Z,76.87
2023-05-13T10:30:17.842Z,77.57
2023-05-13T10:40:17.988Z,78.52
2023-05-13T10:50:18.136Z,77.77
2023-05-13T11:00:18.318Z,76.05
2023-05-13T11:10:18.472Z,74.02
2023-05-13T11:20:18.666Z,76.42
2023-05-13T11:30:18.991Z,75.04
2023-05-13T11:40:19.019Z,77.39
2023-05-13T11:50:19.212Z,74.87
2023-05-13T12:00:19.385Z,77.95
2023-05-13T12:10:19.536Z,76.86
2023-05-13T12:20:19.725Z,78.25
2023-05-13T12:30:19.884Z,77.06
2023-05-13T12:40:20.056Z,75.04
2023-05-13T12:50:20.229Z,73.69
2023-05-13T13:00:20.396Z,75.28
2023-05-13T13:10:20.582Z,75.34
2023-05-13T13:20:20.766Z,74.46
2023-05-13T13:30:20.924Z,70.42
2023-05-13T13:40:21.295Z,69.52
2023-05-13T13:50:21.457Z,71.33
2023-05-13T14:00:21.685Z,70.36
2023-05-13T14:10:21.853Z,71.73
2023-05-13T14:20:22.378Z,68.88
2023-05-13T14:30:22.099Z,72.95
2023-05-13T14:40:22.397Z,73.86
2023-05-13T14:50:43.470Z,73.15
2023-05-13T15:00:22.701Z,72.78
2023-05-13T15:10:22.843Z,75.14
2023-05-13T15:20:23.038Z,77.24
2023-05-13T15:30:23.303Z,75.76
2023-05-13T15:40:23.228Z,76.06
2023-05-13T15:50:23.593Z,76.60
2023-05-13T16:00:23.766Z,75.15
2023-05-13T16:10:24.149Z,77.54
2023-05-13T16:20:24.218Z,79.10
2023-05-13T16:30:24.354Z,77.41
2023-05-13T16:40:24.506Z,78.60
2023-05-13T16:50:25.019Z,80.36
2023-05-13T17:00:24.949Z,81.31
2023-05-13T17:10:25.203Z,82.43
2023-05-13T17:20:25.128Z,81.72
2023-05-13T17:30:25.308Z,82.47
2023-05-13T17:40:25.466Z,83.69
2023-05-13T17:50:25.724Z,82.71
2023-05-13T18:00:25.974Z,83.62
2023-05-13T18:10:26.178Z,83.69
2023-05-13T18:20:26.418Z,84.50
2023-05-13T18:30:26.642Z,84.84
2023-05-13T18:40:26.899Z,86.07
2023-05-13T18:50:27.162Z,86.71
2023-05-13T19:00:27.407Z,86.31
2023-05-13T19:10:28.640Z,85.33
2023-05-13T19:20:27.834Z,85.23
2023-05-13T19:30:28.108Z,85.43
2023-05-13T19:40:28.166Z,85.53
2023-05-13T19:50:28.359Z,86.04
2023-05-13T20:00:28.585Z,84.82
2023-05-13T20:10:28.780Z,85.64
2023-05-13T20:20:28.909Z,84.31
2023-05-13T20:30:29.271Z,85.53
2023-05-13T20:40:29.480Z,85.68
2023-05-13T20:50:33.387Z,84.76
2023-05-13T21:00:29.736Z,85.37
2023-05-13T21:10:29.727Z,85.98
2023-05-13T21:20:29.711Z,85.78
2023-05-13T21:30:29.774Z,85.68
2023-05-13T21:40:29.915Z,86.33
2023-05-13T21:50:30.102Z,86.94
2023-05-13T22:00:30.364Z,86.22
2023-05-13T22:10:30.329Z,86.27
2023-05-13T22:20:30.492Z,85.61
2023-05-13T22:30:30.670Z,85.75
2023-05-13T22:40:30.837Z,86.27
2023-05-13T22:50:31.027Z,86.57
2023-05-13T23:00:31.189Z,86.47
2023-05-13T23:10:31.532Z,87.18
2023-05-13T23:20:31.502Z,87.18
2023-05-13T23:30:31.668Z,87.69
2023-05-13T23:40:31.870Z,88.31
2023-05-13T23:50:32.018Z,88.65
